sensor_id;sensor_type;location;lat;lon;timestamp;P1;durP1;ratioP1;P2;durP2;ratioP2
47251;SDS011;32991;51.374;11.586;2022-07-23T00:00:18;11.45;;;8.15;;
47251;SDS011;32991;51.374;11.586;2022-07-23T00:02:46;13.40;;;8.55;;
47251;SDS011;32991;51.374;11.586;2022-07-23T00:05:13;12.23;;;8.30;;
47251;SDS011;32991;51.374;11.586;2022-07-23T00:07:41;12.18;;;8.70;;
47251;SDS011;32991;51.374;11.586;2022-07-23T00:10:09;13.68;;;8.25;;
47251;SDS011;32991;51.374;11.586;2022-07-23T00:12:36;14.10;;;9.40;;
47251;SDS011;32991;51.374;11.586;2022-07-23T00:15:17;12.40;;;8.48;;
47251;SDS011;32991;51.374;11.586;2022-07-23T00:17:44;10.05;;;8.85;;
47251;SDS011;32991;51.374;11.586;2022-07-23T00:20:11;9.82;;;8.63;;
47251;SDS011;32991;51.374;11.586;2022-07-23T00:22:48;11.90;;;8.40;;
47251;SDS011;32991;51.374;11.586;2022-07-23T00:25:17;9.23;;;8.13;;
47251;SDS011;32991;51.374;11.586;2022-07-23T00:28:00;11.73;;;8.88;;
47251;SDS011;32991;51.374;11.586;2022-07-23T00:30:28;9.85;;;8.80;;
47251;SDS011;32991;51.374;11.586;2022-07-23T00:32:59;11.00;;;8.65;;
47251;SDS011;32991;51.374;11.586;2022-07-23T00:35:29;9.55;;;8.55;;
47251;SDS011;32991;51.374;11.586;2022-07-23T00:37:57;11.25;;;8.75;;
47251;SDS011;32991;51.374;11.586;2022-07-23T00:40:25;13.88;;;9.48;;
47251;SDS011;32991;51.374;11.586;2022-07-23T00:42:52;12.60;;;9.02;;
47251;SDS011;32991;51.374;11.586;2022-07-23T00:45:19;12.35;;;9.73;;
47251;SDS011;32991;51.374;11.586;2022-07-23T00:47:46;11.82;;;9.02;;
47251;SDS011;32991;51.374;11.586;2022-07-23T00:50:13;12.70;;;8.65;;
47251;SDS011;32991;51.374;11.586;2022-07-23T00:52:41;10.48;;;8.77;;
47251;SDS011;32991;51.374;11.586;2022-07-23T00:55:09;11.70;;;9.00;;
47251;SDS011;32991;51.374;11.586;2022-07-23T00:57:37;10.75;;;9.25;;
47251;SDS011;32991;51.374;11.586;2022-07-23T01:00:06;10.23;;;8.60;;
47251;SDS011;32991;51.374;11.586;2022-07-23T01:02:36;12.88;;;9.80;;
47251;SDS011;32991;51.374;11.586;2022-07-23T01:05:03;11.02;;;9.23;;
47251;SDS011;32991;51.374;11.586;2022-07-23T01:07:31;10.82;;;9.68;;
47251;SDS011;32991;51.374;11.586;2022-07-23T01:10:00;12.07;;;9.50;;
47251;SDS011;32991;51.374;11.586;2022-07-23T01:12:29;10.75;;;9.30;;
47251;SDS011;32991;51.374;11.586;2022-07-23T01:14:59;10.90;;;8.90;;
47251;SDS011;32991;51.374;11.586;2022-07-23T01:17:28;13.52;;;9.23;;
47251;SDS011;32991;51.374;11.586;2022-07-23T01:19:55;12.15;;;9.02;;
47251;SDS011;32991;51.374;11.586;2022-07-23T01:22:22;14.77;;;10.25;;
47251;SDS011;32991;51.374;11.586;2022-07-23T01:24:54;11.40;;;10.05;;
47251;SDS011;32991;51.374;11.586;2022-07-23T01:27:23;12.40;;;10.52;;
47251;SDS011;32991;51.374;11.586;2022-07-23T01:29:55;12.57;;;9.45;;
47251;SDS011;32991;51.374;11.586;2022-07-23T01:32:25;11.25;;;9.95;;
47251;SDS011;32991;51.374;11.586;2022-07-23T01:34:52;11.95;;;9.73;;
47251;SDS011;32991;51.374;11.586;2022-07-23T01:37:20;13.00;;;10.63;;
47251;SDS011;32991;51.374;11.586;2022-07-23T01:39:48;13.43;;;10.40;;
47251;SDS011;32991;51.374;11.586;2022-07-23T01:42:15;12.52;;;11.23;;
47251;SDS011;32991;51.374;11.586;2022-07-23T01:44:43;15.07;;;10.27;;
47251;SDS011;32991;51.374;11.586;2022-07-23T01:47:16;14.18;;;11.15;;
47251;SDS011;32991;51.374;11.586;2022-07-23T01:49:43;16.27;;;12.10;;
47251;SDS011;32991;51.374;11.586;2022-07-23T01:52:24;14.65;;;11.40;;
47251;SDS011;32991;51.374;11.586;2022-07-23T01:54:50;12.88;;;11.20;;
47251;SDS011;32991;51.374;11.586;2022-07-23T01:57:17;15.75;;;11.93;;
47251;SDS011;32991;51.374;11.586;2022-07-23T01:59:44;14.27;;;11.60;;
47251;SDS011;32991;51.374;11.586;2022-07-23T02:02:11;13.45;;;11.77;;
47251;SDS011;32991;51.374;11.586;2022-07-23T02:04:38;17.17;;;12.23;;
47251;SDS011;32991;51.374;11.586;2022-07-23T02:07:05;14.02;;;11.85;;
47251;SDS011;32991;51.374;11.586;2022-07-23T02:09:33;15.90;;;12.02;;
47251;SDS011;32991;51.374;11.586;2022-07-23T02:12:00;14.60;;;12.25;;
47251;SDS011;32991;51.374;11.586;2022-07-23T02:15:17;16.63;;;10.95;;
47251;SDS011;32991;51.374;11.586;2022-07-23T02:18:59;13.75;;;12.10;;
47251;SDS011;32991;51.374;11.586;2022-07-23T02:21:28;13.85;;;11.57;;
47251;SDS011;32991;51.374;11.586;2022-07-23T02:23:55;14.15;;;11.45;;
47251;SDS011;32991;51.374;11.586;2022-07-23T02:26:22;16.77;;;11.00;;
47251;SDS011;32991;51.374;11.586;2022-07-23T02:29:10;14.50;;;11.70;;
47251;SDS011;32991;51.374;11.586;2022-07-23T02:31:37;15.68;;;12.38;;
47251;SDS011;32991;51.374;11.586;2022-07-23T02:34:05;14.10;;;11.70;;
47251;SDS011;32991;51.374;11.586;2022-07-23T02:36:33;14.93;;;11.43;;
47251;SDS011;32991;51.374;11.586;2022-07-23T02:39:02;15.70;;;11.18;;
47251;SDS011;32991;51.374;11.586;2022-07-23T02:41:31;16.63;;;10.98;;
47251;SDS011;32991;51.374;11.586;2022-07-23T02:43:58;13.98;;;11.20;;
47251;SDS011;32991;51.374;11.586;2022-07-23T02:46:26;11.73;;;10.52;;
47251;SDS011;32991;51.374;11.586;2022-07-23T02:48:54;17.42;;;10.65;;
47251;SDS011;32991;51.374;11.586;2022-07-23T02:51:21;14.63;;;11.40;;
47251;SDS011;32991;51.374;11.586;2022-07-23T02:53:54;13.15;;;10.13;;
47251;SDS011;32991;51.374;11.586;2022-07-23T02:56:20;12.35;;;10.55;;
47251;SDS011;32991;51.374;11.586;2022-07-23T02:58:47;17.30;;;11.13;;
47251;SDS011;32991;51.374;11.586;2022-07-23T03:01:14;12.30;;;10.23;;
47251;SDS011;32991;51.374;11.586;2022-07-23T03:03:44;11.65;;;10.35;;
47251;SDS011;32991;51.374;11.586;2022-07-23T03:06:11;12.85;;;10.32;;
47251;SDS011;32991;51.374;11.586;2022-07-23T03:08:39;12.13;;;10.30;;
47251;SDS011;32991;51.374;11.586;2022-07-23T03:11:06;12.75;;;10.07;;
47251;SDS011;32991;51.374;11.586;2022-07-23T03:13:38;11.30;;;10.10;;
47251;SDS011;32991;51.374;11.586;2022-07-23T03:16:05;12.07;;;10.45;;
47251;SDS011;32991;51.374;11.586;2022-07-23T03:18:35;13.38;;;10.52;;
47251;SDS011;32991;51.374;11.586;2022-07-23T03:21:07;13.15;;;10.98;;
47251;SDS011;32991;51.374;11.586;2022-07-23T03:23:36;15.02;;;11.15;;
47251;SDS011;32991;51.374;11.586;2022-07-23T03:26:03;13.05;;;11.00;;
47251;SDS011;32991;51.374;11.586;2022-07-23T03:28:30;18.35;;;12.00;;
47251;SDS011;32991;51.374;11.586;2022-07-23T03:30:57;14.98;;;12.52;;
47251;SDS011;32991;51.374;11.586;2022-07-23T03:33:24;16.58;;;12.52;;
47251;SDS011;32991;51.374;11.586;2022-07-23T03:35:52;22.27;;;14.07;;
47251;SDS011;32991;51.374;11.586;2022-07-23T03:38:23;22.98;;;15.73;;
47251;SDS011;32991;51.374;11.586;2022-07-23T03:40:50;33.17;;;20.23;;
47251;SDS011;32991;51.374;11.586;2022-07-23T03:43:17;30.83;;;20.30;;
47251;SDS011;32991;51.374;11.586;2022-07-23T03:45:44;30.55;;;21.02;;
47251;SDS011;32991;51.374;11.586;2022-07-23T03:48:11;33.42;;;21.10;;
47251;SDS011;32991;51.374;11.586;2022-07-23T03:50:38;40.13;;;25.73;;
47251;SDS011;32991;51.374;11.586;2022-07-23T03:53:05;36.70;;;24.33;;
47251;SDS011;32991;51.374;11.586;2022-07-23T03:55:33;43.10;;;25.63;;
47251;SDS011;32991;51.374;11.586;2022-07-23T03:58:01;39.30;;;24.35;;
47251;SDS011;32991;51.374;11.586;2022-07-23T04:00:28;39.92;;;24.55;;
47251;SDS011;32991;51.374;11.586;2022-07-23T04:02:55;33.75;;;23.15;;
47251;SDS011;32991;51.374;11.586;2022-07-23T04:05:22;31.13;;;22.52;;
47251;SDS011;32991;51.374;11.586;2022-07-23T04:07:53;31.27;;;22.92;;
47251;SDS011;32991;51.374;11.586;2022-07-23T04:10:21;27.02;;;19.85;;
47251;SDS011;32991;51.374;11.586;2022-07-23T04:12:48;26.00;;;19.65;;
47251;SDS011;32991;51.374;11.586;2022-07-23T04:15:14;27.08;;;19.13;;
47251;SDS011;32991;51.374;11.586;2022-07-23T04:17:41;25.85;;;18.33;;
47251;SDS011;32991;51.374;11.586;2022-07-23T04:20:10;28.15;;;19.67;;
47251;SDS011;32991;51.374;11.586;2022-07-23T04:22:44;22.77;;;17.65;;
47251;SDS011;32991;51.374;11.586;2022-07-23T04:25:11;21.98;;;19.33;;
47251;SDS011;32991;51.374;11.586;2022-07-23T04:27:39;24.48;;;19.52;;
47251;SDS011;32991;51.374;11.586;2022-07-23T04:30:07;25.92;;;18.65;;
47251;SDS011;32991;51.374;11.586;2022-07-23T04:32:34;22.58;;;18.40;;
47251;SDS011;32991;51.374;11.586;2022-07-23T04:35:05;22.88;;;18.65;;
47251;SDS011;32991;51.374;11.586;2022-07-23T04:37:35;20.70;;;18.00;;
47251;SDS011;32991;51.374;11.586;2022-07-23T04:40:02;23.10;;;17.55;;
47251;SDS011;32991;51.374;11.586;2022-07-23T04:42:29;22.13;;;18.02;;
47251;SDS011;32991;51.374;11.586;2022-07-23T04:44:56;23.00;;;17.60;;
47251;SDS011;32991;51.374;11.586;2022-07-23T04:47:23;22.67;;;18.33;;
47251;SDS011;32991;51.374;11.586;2022-07-23T04:49:55;23.02;;;17.40;;
47251;SDS011;32991;51.374;11.586;2022-07-23T04:52:22;22.02;;;17.40;;
47251;SDS011;32991;51.374;11.586;2022-07-23T04:54:49;20.90;;;17.35;;
47251;SDS011;32991;51.374;11.586;2022-07-23T04:57:16;24.02;;;17.88;;
47251;SDS011;32991;51.374;11.586;2022-07-23T04:59:43;22.80;;;18.08;;
47251;SDS011;32991;51.374;11.586;2022-07-23T05:02:10;23.88;;;19.60;;
47251;SDS011;32991;51.374;11.586;2022-07-23T05:04:38;26.50;;;19.65;;
47251;SDS011;32991;51.374;11.586;2022-07-23T05:07:05;23.58;;;18.80;;
47251;SDS011;32991;51.374;11.586;2022-07-23T05:09:33;25.00;;;18.13;;
47251;SDS011;32991;51.374;11.586;2022-07-23T05:12:00;26.65;;;19.70;;
47251;SDS011;32991;51.374;11.586;2022-07-23T05:14:29;28.15;;;19.55;;
47251;SDS011;32991;51.374;11.586;2022-07-23T05:16:56;23.40;;;20.27;;
47251;SDS011;32991;51.374;11.586;2022-07-23T05:19:24;27.20;;;20.73;;
47251;SDS011;32991;51.374;11.586;2022-07-23T05:21:52;24.13;;;19.73;;
47251;SDS011;32991;51.374;11.586;2022-07-23T05:24:19;26.90;;;19.58;;
47251;SDS011;32991;51.374;11.586;2022-07-23T05:26:47;24.80;;;19.63;;
47251;SDS011;32991;51.374;11.586;2022-07-23T05:29:14;26.25;;;20.08;;
47251;SDS011;32991;51.374;11.586;2022-07-23T05:31:41;28.08;;;19.52;;
47251;SDS011;32991;51.374;11.586;2022-07-23T05:34:08;28.02;;;20.88;;
47251;SDS011;32991;51.374;11.586;2022-07-23T05:36:42;26.27;;;20.70;;
47251;SDS011;32991;51.374;11.586;2022-07-23T05:39:09;27.27;;;21.27;;
47251;SDS011;32991;51.374;11.586;2022-07-23T05:41:36;29.35;;;21.38;;
47251;SDS011;32991;51.374;11.586;2022-07-23T05:44:03;28.25;;;22.05;;
47251;SDS011;32991;51.374;11.586;2022-07-23T05:46:31;26.58;;;21.10;;
47251;SDS011;32991;51.374;11.586;2022-07-23T05:49:04;24.52;;;20.63;;
47251;SDS011;32991;51.374;11.586;2022-07-23T05:51:50;25.63;;;20.63;;
47251;SDS011;32991;51.374;11.586;2022-07-23T05:54:26;25.75;;;20.30;;
47251;SDS011;32991;51.374;11.586;2022-07-23T05:56:53;29.67;;;21.45;;
47251;SDS011;32991;51.374;11.586;2022-07-23T05:59:20;26.27;;;21.13;;
47251;SDS011;32991;51.374;11.586;2022-07-23T06:01:47;23.65;;;20.70;;
47251;SDS011;32991;51.374;11.586;2022-07-23T06:04:15;28.67;;;21.23;;
47251;SDS011;32991;51.374;11.586;2022-07-23T06:06:52;21.70;;;18.98;;
47251;SDS011;32991;51.374;11.586;2022-07-23T06:09:19;26.20;;;21.27;;
47251;SDS011;32991;51.374;11.586;2022-07-23T06:11:45;27.42;;;20.83;;
47251;SDS011;32991;51.374;11.586;2022-07-23T06:14:12;24.80;;;20.17;;
47251;SDS011;32991;51.374;11.586;2022-07-23T06:16:49;27.08;;;21.13;;
47251;SDS011;32991;51.374;11.586;2022-07-23T06:19:16;25.90;;;21.27;;
47251;SDS011;32991;51.374;11.586;2022-07-23T06:21:43;27.40;;;22.23;;
47251;SDS011;32991;51.374;11.586;2022-07-23T06:24:14;26.83;;;22.30;;
47251;SDS011;32991;51.374;11.586;2022-07-23T06:26:41;25.75;;;21.42;;
47251;SDS011;32991;51.374;11.586;2022-07-23T06:29:08;24.30;;;21.30;;
47251;SDS011;32991;51.374;11.586;2022-07-23T06:31:34;28.02;;;22.73;;
47251;SDS011;32991;51.374;11.586;2022-07-23T06:34:01;23.55;;;20.88;;
47251;SDS011;32991;51.374;11.586;2022-07-23T06:36:28;25.27;;;20.73;;
47251;SDS011;32991;51.374;11.586;2022-07-23T06:38:55;24.50;;;20.80;;
47251;SDS011;32991;51.374;11.586;2022-07-23T06:41:23;24.23;;;19.48;;
47251;SDS011;32991;51.374;11.586;2022-07-23T06:43:50;23.65;;;19.58;;
47251;SDS011;32991;51.374;11.586;2022-07-23T06:46:18;28.85;;;20.95;;
47251;SDS011;32991;51.374;11.586;2022-07-23T06:48:45;25.30;;;20.13;;
47251;SDS011;32991;51.374;11.586;2022-07-23T06:51:12;25.52;;;20.38;;
47251;SDS011;32991;51.374;11.586;2022-07-23T06:53:39;25.85;;;20.17;;
47251;SDS011;32991;51.374;11.586;2022-07-23T06:56:08;23.90;;;19.63;;
47251;SDS011;32991;51.374;11.586;2022-07-23T06:58:35;23.00;;;19.25;;
47251;SDS011;32991;51.374;11.586;2022-07-23T07:01:01;22.80;;;18.88;;
47251;SDS011;32991;51.374;11.586;2022-07-23T07:03:28;20.63;;;17.52;;
47251;SDS011;32991;51.374;11.586;2022-07-23T07:05:55;21.17;;;18.95;;
47251;SDS011;32991;51.374;11.586;2022-07-23T07:08:23;26.20;;;19.25;;
47251;SDS011;32991;51.374;11.586;2022-07-23T07:10:50;22.42;;;17.98;;
47251;SDS011;32991;51.374;11.586;2022-07-23T07:13:17;18.38;;;16.38;;
47251;SDS011;32991;51.374;11.586;2022-07-23T07:15:44;19.50;;;17.27;;
47251;SDS011;32991;51.374;11.586;2022-07-23T07:18:11;18.48;;;16.58;;
47251;SDS011;32991;51.374;11.586;2022-07-23T07:20:37;16.95;;;15.20;;
47251;SDS011;32991;51.374;11.586;2022-07-23T07:23:04;17.60;;;15.75;;
47251;SDS011;32991;51.374;11.586;2022-07-23T07:25:31;17.48;;;15.68;;
47251;SDS011;32991;51.374;11.586;2022-07-23T07:27:58;20.40;;;15.90;;
47251;SDS011;32991;51.374;11.586;2022-07-23T07:30:25;20.20;;;17.33;;
47251;SDS011;32991;51.374;11.586;2022-07-23T07:32:59;19.40;;;15.40;;
47251;SDS011;32991;51.374;11.586;2022-07-23T07:35:25;18.73;;;15.73;;
47251;SDS011;32991;51.374;11.586;2022-07-23T07:37:52;19.50;;;15.90;;
47251;SDS011;32991;51.374;11.586;2022-07-23T07:40:19;18.05;;;16.13;;
47251;SDS011;32991;51.374;11.586;2022-07-23T07:42:48;16.02;;;14.32;;
47251;SDS011;32991;51.374;11.586;2022-07-23T07:45:16;16.70;;;14.40;;
47251;SDS011;32991;51.374;11.586;2022-07-23T07:47:43;16.88;;;15.02;;
47251;SDS011;32991;51.374;11.586;2022-07-23T07:50:10;17.35;;;14.00;;
47251;SDS011;32991;51.374;11.586;2022-07-23T07:52:37;15.77;;;13.18;;
47251;SDS011;32991;51.374;11.586;2022-07-23T07:55:05;16.50;;;13.30;;
47251;SDS011;32991;51.374;11.586;2022-07-23T07:57:34;14.23;;;12.55;;
47251;SDS011;32991;51.374;11.586;2022-07-23T08:00:02;15.02;;;13.52;;
47251;SDS011;32991;51.374;11.586;2022-07-23T08:02:47;14.52;;;13.00;;
47251;SDS011;32991;51.374;11.586;2022-07-23T08:05:23;14.88;;;13.35;;
47251;SDS011;32991;51.374;11.586;2022-07-23T08:07:54;14.52;;;13.02;;
47251;SDS011;32991;51.374;11.586;2022-07-23T08:10:22;16.25;;;14.55;;
47251;SDS011;32991;51.374;11.586;2022-07-23T08:12:54;17.48;;;15.68;;
47251;SDS011;32991;51.374;11.586;2022-07-23T08:15:23;18.17;;;16.15;;
47251;SDS011;32991;51.374;11.586;2022-07-23T08:17:52;16.95;;;15.18;;
47251;SDS011;32991;51.374;11.586;2022-07-23T08:20:20;18.85;;;16.63;;
47251;SDS011;32991;51.374;11.586;2022-07-23T08:22:52;19.00;;;17.00;;
47251;SDS011;32991;51.374;11.586;2022-07-23T08:25:30;19.13;;;17.13;;
47251;SDS011;32991;51.374;11.586;2022-07-23T08:28:03;19.40;;;17.33;;
47251;SDS011;32991;51.374;11.586;2022-07-23T08:30:31;20.98;;;17.42;;
47251;SDS011;32991;51.374;11.586;2022-07-23T08:33:00;20.33;;;18.10;;
47251;SDS011;32991;51.374;11.586;2022-07-23T08:35:36;19.90;;;17.67;;
47251;SDS011;32991;51.374;11.586;2022-07-23T08:38:05;20.83;;;17.52;;
47251;SDS011;32991;51.374;11.586;2022-07-23T08:40:34;19.83;;;16.98;;
47251;SDS011;32991;51.374;11.586;2022-07-23T08:43:10;19.42;;;17.20;;
47251;SDS011;32991;51.374;11.586;2022-07-23T08:45:50;20.27;;;17.52;;
47251;SDS011;32991;51.374;11.586;2022-07-23T08:48:19;19.35;;;16.73;;
47251;SDS011;32991;51.374;11.586;2022-07-23T08:50:54;20.58;;;16.58;;
47251;SDS011;32991;51.374;11.586;2022-07-23T08:53:24;20.08;;;16.60;;
47251;SDS011;32991;51.374;11.586;2022-07-23T08:55:53;19.95;;;16.90;;
47251;SDS011;32991;51.374;11.586;2022-07-23T08:58:21;18.13;;;16.23;;
47251;SDS011;32991;51.374;11.586;2022-07-23T09:00:53;20.27;;;16.98;;
47251;SDS011;32991;51.374;11.586;2022-07-23T09:03:22;18.73;;;16.45;;
47251;SDS011;32991;51.374;11.586;2022-07-23T09:05:53;19.10;;;16.33;;
47251;SDS011;32991;51.374;11.586;2022-07-23T09:08:24;18.30;;;16.20;;
47251;SDS011;32991;51.374;11.586;2022-07-23T09:10:54;17.83;;;15.98;;
47251;SDS011;32991;51.374;11.586;2022-07-23T09:18:44;20.13;;;16.50;;
47251;SDS011;32991;51.374;11.586;2022-07-23T09:23:54;20.90;;;18.13;;
47251;SDS011;32991;51.374;11.586;2022-07-23T09:26:29;20.25;;;17.02;;
47251;SDS011;32991;51.374;11.586;2022-07-23T09:29:19;20.95;;;16.63;;
47251;SDS011;32991;51.374;11.586;2022-07-23T09:31:59;18.27;;;16.30;;
47251;SDS011;32991;51.374;11.586;2022-07-23T09:34:32;23.30;;;17.10;;
47251;SDS011;32991;51.374;11.586;2022-07-23T09:39:44;20.60;;;16.52;;
47251;SDS011;32991;51.374;11.586;2022-07-23T09:42:18;20.90;;;17.08;;
47251;SDS011;32991;51.374;11.586;2022-07-23T09:44:56;20.25;;;17.05;;
47251;SDS011;32991;51.374;11.586;2022-07-23T09:47:25;21.90;;;16.80;;
47251;SDS011;32991;51.374;11.586;2022-07-23T09:49:57;19.83;;;15.98;;
47251;SDS011;32991;51.374;11.586;2022-07-23T09:52:36;18.08;;;16.15;;
47251;SDS011;32991;51.374;11.586;2022-07-23T09:55:07;19.98;;;16.25;;
47251;SDS011;32991;51.374;11.586;2022-07-23T09:57:34;19.98;;;16.40;;
47251;SDS011;32991;51.374;11.586;2022-07-23T10:00:03;18.50;;;16.55;;
47251;SDS011;32991;51.374;11.586;2022-07-23T10:02:32;19.88;;;16.33;;
47251;SDS011;32991;51.374;11.586;2022-07-23T10:05:18;21.52;;;16.30;;
47251;SDS011;32991;51.374;11.586;2022-07-23T10:08:06;18.83;;;16.40;;
47251;SDS011;32991;51.374;11.586;2022-07-23T10:10:43;18.73;;;16.75;;
47251;SDS011;32991;51.374;11.586;2022-07-23T10:13:40;19.80;;;16.77;;
47251;SDS011;32991;51.374;11.586;2022-07-23T10:16:32;22.58;;;17.67;;
47251;SDS011;32991;51.374;11.586;2022-07-23T10:18:59;21.48;;;17.80;;
47251;SDS011;32991;51.374;11.586;2022-07-23T10:21:39;17.40;;;15.50;;
47251;SDS011;32991;51.374;11.586;2022-07-23T10:24:20;17.88;;;14.27;;
47251;SDS011;32991;51.374;11.586;2022-07-23T10:26:55;21.20;;;15.48;;
47251;SDS011;32991;51.374;11.586;2022-07-23T10:35:07;20.33;;;14.90;;
47251;SDS011;32991;51.374;11.586;2022-07-23T10:37:49;17.25;;;14.95;;
47251;SDS011;32991;51.374;11.586;2022-07-23T10:40:21;18.30;;;15.55;;
47251;SDS011;32991;51.374;11.586;2022-07-23T10:42:51;17.13;;;15.10;;
47251;SDS011;32991;51.374;11.586;2022-07-23T10:47:53;17.10;;;15.23;;
47251;SDS011;32991;51.374;11.586;2022-07-23T10:50:26;15.68;;;14.07;;
47251;SDS011;32991;51.374;11.586;2022-07-23T10:58:00;15.55;;;13.15;;
47251;SDS011;32991;51.374;11.586;2022-07-23T11:00:29;17.67;;;13.77;;
47251;SDS011;32991;51.374;11.586;2022-07-23T11:02:58;16.50;;;13.20;;
47251;SDS011;32991;51.374;11.586;2022-07-23T11:05:27;13.75;;;12.35;;
47251;SDS011;32991;51.374;11.586;2022-07-23T11:08:12;14.15;;;12.13;;
47251;SDS011;32991;51.374;11.586;2022-07-23T11:31:55;10.38;;;9.38;;
47251;SDS011;32991;51.374;11.586;2022-07-23T11:34:27;10.70;;;9.30;;
47251;SDS011;32991;51.374;11.586;2022-07-23T11:36:59;11.10;;;8.73;;
47251;SDS011;32991;51.374;11.586;2022-07-23T11:39:27;10.70;;;9.70;;
47251;SDS011;32991;51.374;11.586;2022-07-23T11:41:55;10.23;;;9.23;;
47251;SDS011;32991;51.374;11.586;2022-07-23T11:46:57;9.95;;;9.05;;
47251;SDS011;32991;51.374;11.586;2022-07-23T11:49:25;10.30;;;9.30;;
47251;SDS011;32991;51.374;11.586;2022-07-23T11:52:12;10.18;;;9.10;;
47251;SDS011;32991;51.374;11.586;2022-07-23T11:54:47;9.45;;;8.55;;
47251;SDS011;32991;51.374;11.586;2022-07-23T11:57:19;9.18;;;8.38;;
47251;SDS011;32991;51.374;11.586;2022-07-23T11:59:47;9.02;;;8.13;;
47251;SDS011;32991;51.374;11.586;2022-07-23T12:02:19;7.90;;;7.20;;
47251;SDS011;32991;51.374;11.586;2022-07-23T12:04:48;9.27;;;7.15;;
47251;SDS011;32991;51.374;11.586;2022-07-23T12:10:18;7.18;;;6.47;;
47251;SDS011;32991;51.374;11.586;2022-07-23T12:12:55;6.75;;;6.20;;
47251;SDS011;32991;51.374;11.586;2022-07-23T12:15:23;6.88;;;6.15;;
47251;SDS011;32991;51.374;11.586;2022-07-23T12:17:52;7.15;;;6.55;;
47251;SDS011;32991;51.374;11.586;2022-07-23T12:20:42;7.38;;;6.57;;
47251;SDS011;32991;51.374;11.586;2022-07-23T12:23:10;6.72;;;6.03;;
47251;SDS011;32991;51.374;11.586;2022-07-23T12:25:45;6.30;;;5.70;;
47251;SDS011;32991;51.374;11.586;2022-07-23T12:28:14;6.38;;;5.78;;
47251;SDS011;32991;51.374;11.586;2022-07-23T12:30:45;7.53;;;6.00;;
47251;SDS011;32991;51.374;11.586;2022-07-23T12:33:14;6.70;;;6.00;;
47251;SDS011;32991;51.374;11.586;2022-07-23T12:35:48;6.90;;;5.28;;
47251;SDS011;32991;51.374;11.586;2022-07-23T12:38:16;6.15;;;5.47;;
47251;SDS011;32991;51.374;11.586;2022-07-23T12:40:45;7.43;;;5.63;;
47251;SDS011;32991;51.374;11.586;2022-07-23T12:43:26;6.00;;;5.05;;
47251;SDS011;32991;51.374;11.586;2022-07-23T12:46:02;5.72;;;4.90;;
47251;SDS011;32991;51.374;11.586;2022-07-23T12:48:35;5.03;;;4.57;;
47251;SDS011;32991;51.374;11.586;2022-07-23T12:51:05;5.72;;;5.22;;
47251;SDS011;32991;51.374;11.586;2022-07-23T12:56:12;6.47;;;5.00;;
47251;SDS011;32991;51.374;11.586;2022-07-23T12:58:54;4.63;;;4.22;;
47251;SDS011;32991;51.374;11.586;2022-07-23T13:01:24;4.95;;;4.28;;
47251;SDS011;32991;51.374;11.586;2022-07-23T13:04:17;5.05;;;4.25;;
47251;SDS011;32991;51.374;11.586;2022-07-23T13:06:46;5.93;;;4.70;;
47251;SDS011;32991;51.374;11.586;2022-07-23T13:09:21;4.82;;;4.32;;
47251;SDS011;32991;51.374;11.586;2022-07-23T13:11:51;4.70;;;4.30;;
47251;SDS011;32991;51.374;11.586;2022-07-23T13:14:22;5.53;;;4.53;;
47251;SDS011;32991;51.374;11.586;2022-07-23T13:16:52;5.03;;;4.22;;
47251;SDS011;32991;51.374;11.586;2022-07-23T13:19:22;6.93;;;5.00;;
47251;SDS011;32991;51.374;11.586;2022-07-23T13:21:51;6.00;;;4.43;;
47251;SDS011;32991;51.374;11.586;2022-07-23T13:24:18;4.93;;;4.32;;
47251;SDS011;32991;51.374;11.586;2022-07-23T13:26:45;5.95;;;4.30;;
47251;SDS011;32991;51.374;11.586;2022-07-23T13:29:13;4.65;;;4.25;;
47251;SDS011;32991;51.374;11.586;2022-07-23T13:31:42;4.65;;;4.25;;
47251;SDS011;32991;51.374;11.586;2022-07-23T13:34:11;5.43;;;4.93;;
47251;SDS011;32991;51.374;11.586;2022-07-23T13:36:38;5.18;;;4.75;;
47251;SDS011;32991;51.374;11.586;2022-07-23T13:39:05;4.15;;;3.75;;
47251;SDS011;32991;51.374;11.586;2022-07-23T13:41:35;4.70;;;4.25;;
47251;SDS011;32991;51.374;11.586;2022-07-23T13:44:03;4.60;;;4.05;;
47251;SDS011;32991;51.374;11.586;2022-07-23T13:46:32;5.03;;;4.32;;
47251;SDS011;32991;51.374;11.586;2022-07-23T13:49:00;5.72;;;4.10;;
47251;SDS011;32991;51.374;11.586;2022-07-23T13:51:28;6.13;;;4.75;;
47251;SDS011;32991;51.374;11.586;2022-07-23T13:53:54;5.70;;;4.43;;
47251;SDS011;32991;51.374;11.586;2022-07-23T13:56:21;4.80;;;4.30;;
47251;SDS011;32991;51.374;11.586;2022-07-23T13:58:48;7.90;;;5.10;;
47251;SDS011;32991;51.374;11.586;2022-07-23T14:01:15;5.60;;;4.38;;
47251;SDS011;32991;51.374;11.586;2022-07-23T14:03:43;5.88;;;4.70;;
47251;SDS011;32991;51.374;11.586;2022-07-23T14:06:10;7.07;;;5.22;;
47251;SDS011;32991;51.374;11.586;2022-07-23T14:08:42;5.22;;;4.70;;
47251;SDS011;32991;51.374;11.586;2022-07-23T14:11:11;5.90;;;5.10;;
47251;SDS011;32991;51.374;11.586;2022-07-23T14:13:38;5.70;;;5.20;;
47251;SDS011;32991;51.374;11.586;2022-07-23T14:16:06;5.15;;;4.65;;
47251;SDS011;32991;51.374;11.586;2022-07-23T14:18:33;5.75;;;4.63;;
47251;SDS011;32991;51.374;11.586;2022-07-23T14:21:01;6.35;;;4.35;;
47251;SDS011;32991;51.374;11.586;2022-07-23T14:23:28;5.85;;;5.10;;
47251;SDS011;32991;51.374;11.586;2022-07-23T14:25:56;5.25;;;4.75;;
47251;SDS011;32991;51.374;11.586;2022-07-23T14:28:23;5.07;;;4.20;;
47251;SDS011;32991;51.374;11.586;2022-07-23T14:30:50;4.97;;;4.38;;
47251;SDS011;32991;51.374;11.586;2022-07-23T14:33:17;5.55;;;4.10;;
47251;SDS011;32991;51.374;11.586;2022-07-23T14:35:44;4.07;;;3.78;;
47251;SDS011;32991;51.374;11.586;2022-07-23T14:38:11;5.57;;;3.90;;
47251;SDS011;32991;51.374;11.586;2022-07-23T14:40:39;4.75;;;4.25;;
47251;SDS011;32991;51.374;11.586;2022-07-23T14:43:06;11.70;;;5.50;;
47251;SDS011;32991;51.374;11.586;2022-07-23T14:45:36;7.38;;;4.93;;
47251;SDS011;32991;51.374;11.586;2022-07-23T14:48:03;7.53;;;5.60;;
47251;SDS011;32991;51.374;11.586;2022-07-23T14:50:29;6.47;;;5.10;;
47251;SDS011;32991;51.374;11.586;2022-07-23T14:52:56;6.55;;;5.05;;
47251;SDS011;32991;51.374;11.586;2022-07-23T14:55:23;6.43;;;5.03;;
47251;SDS011;32991;51.374;11.586;2022-07-23T14:57:50;6.60;;;5.25;;
47251;SDS011;32991;51.374;11.586;2022-07-23T15:00:17;7.85;;;5.57;;
47251;SDS011;32991;51.374;11.586;2022-07-23T15:02:49;6.28;;;5.65;;
47251;SDS011;32991;51.374;11.586;2022-07-23T15:05:20;5.60;;;5.10;;
47251;SDS011;32991;51.374;11.586;2022-07-23T15:07:48;5.88;;;5.30;;
47251;SDS011;32991;51.374;11.586;2022-07-23T15:10:15;6.95;;;5.00;;
47251;SDS011;32991;51.374;11.586;2022-07-23T15:12:47;8.70;;;5.35;;
47251;SDS011;32991;51.374;11.586;2022-07-23T15:15:15;6.60;;;5.35;;
47251;SDS011;32991;51.374;11.586;2022-07-23T15:17:43;6.28;;;5.65;;
47251;SDS011;32991;51.374;11.586;2022-07-23T15:20:10;6.65;;;5.25;;
47251;SDS011;32991;51.374;11.586;2022-07-23T15:22:40;5.28;;;4.78;;
47251;SDS011;32991;51.374;11.586;2022-07-23T15:25:07;5.50;;;4.97;;